createdAt,value
2023-04-27T00:02:10.416Z,100146.12
2023-04-27T00:04:37.885Z,100144.83
2023-04-27T00:07:05.233Z,100147.49
2023-04-27T00:09:32.250Z,100153.05
2023-04-27T00:11:59.285Z,100150.80
2023-04-27T00:14:28.830Z,100149.39
2023-04-27T00:16:56.485Z,100146.23
2023-04-27T00:19:23.766Z,100149.23
2023-04-27T00:21:50.831Z,100149.20
2023-04-27T00:24:17.917Z,100147.90
2023-04-27T00:26:44.955Z,100151.53
2023-04-27T00:29:12.488Z,100152.21
2023-04-27T00:31:39.799Z,100151.19
2023-04-27T00:34:06.851Z,100148.20
2023-04-27T00:36:35.222Z,100155.73
2023-04-27T00:39:03.447Z,100160.52
2023-04-27T00:41:33.003Z,100163.51
2023-04-27T00:44:00.191Z,100164.15
2023-04-27T00:46:28.258Z,100162.66
2023-04-27T00:48:56.334Z,100169.59
2023-04-27T00:51:28.076Z,100169.22
2023-04-27T00:53:57.540Z,100167.97
2023-04-27T00:56:24.708Z,100166.75
2023-04-27T00:58:51.769Z,100170.16
2023-04-27T01:01:20.942Z,100173.20
2023-04-27T01:03:48.702Z,100169.56
2023-04-27T01:06:15.955Z,100168.45
2023-04-27T01:08:44.328Z,100164.22
2023-04-27T01:11:11.389Z,100152.92
2023-04-27T01:13:39.407Z,100145.17
2023-04-27T01:16:06.589Z,100129.62
2023-04-27T01:18:33.878Z,100132.92
2023-04-27T01:21:01.434Z,100137.64
2023-04-27T01:23:28.468Z,100128.39
2023-04-27T01:25:55.546Z,100123.48
2023-04-27T01:28:22.698Z,100122.71
2023-04-27T01:30:49.839Z,100134.45
2023-04-27T01:33:17.784Z,100139.20
2023-04-27T01:35:44.804Z,100138.33
2023-04-27T01:38:12.148Z,100134.29
2023-04-27T01:40:39.186Z,100120.02
2023-04-27T01:43:06.494Z,100118.27
2023-04-27T01:45:35.013Z,100104.90
2023-04-27T01:48:02.098Z,100101.63
2023-04-27T01:50:29.224Z,100096.74
2023-04-27T01:52:56.308Z,100115.11
2023-04-27T01:55:23.369Z,100139.54
2023-04-27T01:57:50.548Z,100153.05
2023-04-27T02:00:18.844Z,100149.04
2023-04-27T02:02:51.506Z,100158.89
2023-04-27T02:05:18.745Z,100173.96
2023-04-27T02:07:46.329Z,100200.37
2023-04-27T02:10:13.388Z,100213.00
2023-04-27T02:12:40.407Z,100182.67
2023-04-27T02:15:09.082Z,100158.96
2023-04-27T02:17:36.205Z,100159.67
2023-04-27T02:20:05.693Z,100162.64
2023-04-27T02:22:32.875Z,100172.73
2023-04-27T02:25:00.364Z,100161.80
2023-04-27T02:27:27.421Z,100150.99
2023-04-27T02:29:55.077Z,100152.05
2023-04-27T02:32:23.384Z,100155.30
2023-04-27T02:34:50.460Z,100165.08
2023-04-27T02:37:18.984Z,100181.66
2023-04-27T02:39:47.530Z,100181.83
2023-04-27T02:42:14.970Z,100178.86
2023-04-27T02:44:42.963Z,100174.69
2023-04-27T02:47:10.478Z,100179.53
2023-04-27T02:49:38.180Z,100177.58
2023-04-27T02:52:05.454Z,100173.76
2023-04-27T02:54:32.707Z,100183.05
2023-04-27T02:56:59.757Z,100189.23
2023-04-27T02:59:26.793Z,100187.71
2023-04-27T03:01:54.110Z,100196.66
2023-04-27T03:04:21.438Z,100208.71
2023-04-27T03:06:48.974Z,100209.54
2023-04-27T03:09:16.324Z,100207.90
2023-04-27T03:11:43.750Z,100214.65
2023-04-27T03:14:10.789Z,100220.12
2023-04-27T03:16:37.813Z,100223.80
2023-04-27T03:19:05.307Z,100236.27
2023-04-27T03:21:32.329Z,100236.97
2023-04-27T03:23:59.300Z,100236.86
2023-04-27T03:26:27.027Z,100232.83
2023-04-27T03:28:54.112Z,100239.28
2023-04-27T03:31:21.206Z,100232.73
2023-04-27T03:33:48.321Z,100222.21
2023-04-27T03:36:15.657Z,100221.65
2023-04-27T03:38:42.749Z,100220.05
2023-04-27T03:41:10.057Z,100231.59
2023-04-27T03:43:37.215Z,100238.83
2023-04-27T03:46:04.419Z,100240.60
2023-04-27T03:48:31.978Z,100245.98
2023-04-27T03:51:00.792Z,100245.17
2023-04-27T03:53:27.850Z,100251.20
2023-04-27T03:55:54.945Z,100273.67
2023-04-27T03:58:22.024Z,100351.45
2023-04-27T04:01:22.207Z,100375.83
2023-04-27T04:03:49.385Z,100388.44
2023-04-27T04:06:16.614Z,100352.02
2023-04-27T04:08:44.953Z,100368.20
2023-04-27T04:11:12.185Z,100394.44
2023-04-27T04:13:39.356Z,100411.45
2023-04-27T04:16:08.104Z,100409.45
2023-04-27T04:18:35.818Z,100398.00
2023-04-27T04:21:03.289Z,100391.17
2023-04-27T04:23:30.293Z,100381.42
2023-04-27T04:25:57.969Z,100372.82
2023-04-27T04:28:26.627Z,100377.75
2023-04-27T04:30:53.727Z,100380.20
2023-04-27T04:33:20.869Z,100369.92
2023-04-27T04:35:49.146Z,100380.67
2023-04-27T04:38:16.580Z,100386.58
2023-04-27T04:40:45.853Z,100380.67
2023-04-27T04:43:13.686Z,100372.54
2023-04-27T04:45:42.217Z,100372.73
2023-04-27T04:48:10.566Z,100371.72
2023-04-27T04:50:37.758Z,100371.19
2023-04-27T04:53:04.847Z,100377.42
2023-04-27T04:55:33.399Z,100376.44
2023-04-27T04:58:00.779Z,100374.34
2023-04-27T05:00:28.407Z,100383.23
2023-04-27T05:02:55.565Z,100393.09
2023-04-27T05:05:22.812Z,100406.89
2023-04-27T05:07:49.878Z,100425.30
2023-04-27T05:10:17.023Z,100437.15
2023-04-27T05:12:44.822Z,100449.41
2023-04-27T05:15:12.172Z,100456.98
2023-04-27T05:17:39.198Z,100450.23
2023-04-27T05:20:08.080Z,100452.67
2023-04-27T05:22:35.083Z,100450.05
2023-04-27T05:25:02.077Z,100455.46
2023-04-27T05:27:29.136Z,100454.81
2023-04-27T05:29:56.141Z,100458.83
2023-04-27T05:32:23.114Z,100466.95
2023-04-27T05:34:50.091Z,100467.13
2023-04-27T05:37:17.125Z,100467.18
2023-04-27T05:39:44.198Z,100473.16
2023-04-27T05:42:11.594Z,100482.63
2023-04-27T05:44:38.725Z,100482.61
2023-04-27T05:47:06.290Z,100491.89
2023-04-27T05:49:33.418Z,100508.24
2023-04-27T05:52:01.008Z,100515.23
2023-04-27T05:54:27.997Z,100535.83
2023-04-27T05:56:55.014Z,100555.35
2023-04-27T05:59:22.086Z,100577.10
2023-04-27T06:01:49.406Z,100596.91
2023-04-27T06:04:16.837Z,100624.13
2023-04-27T06:06:45.004Z,100651.99
2023-04-27T06:09:12.262Z,100688.15
2023-04-27T06:11:39.615Z,100720.62
2023-04-27T06:14:06.956Z,100771.54
2023-04-27T06:16:34.058Z,100825.38
2023-04-27T06:19:01.205Z,100873.37
2023-04-27T06:21:28.501Z,100932.14
2023-04-27T06:23:55.600Z,100969.19
2023-04-27T06:26:22.622Z,101000.59
2023-04-27T06:28:49.608Z,101033.55
2023-04-27T06:31:17.276Z,101072.30
2023-04-27T06:33:44.334Z,101093.38
2023-04-27T06:36:11.725Z,101128.66
2023-04-27T06:38:38.839Z,101164.63
2023-04-27T06:41:06.231Z,101191.55
2023-04-27T06:43:33.330Z,101199.13
2023-04-27T06:46:00.876Z,101217.79
2023-04-27T06:48:27.952Z,101242.20
2023-04-27T06:50:55.008Z,101273.84
2023-04-27T06:53:22.206Z,101308.55
2023-04-27T06:55:49.766Z,101323.10
2023-04-27T06:58:16.997Z,101362.84
2023-04-27T07:00:43.995Z,101359.58
2023-04-27T07:03:11.276Z,101368.73
2023-04-27T07:05:38.666Z,101371.65
2023-04-27T07:08:08.499Z,101346.89
2023-04-27T07:10:36.258Z,101317.13
2023-04-27T07:13:03.255Z,101282.64
2023-04-27T07:15:33.170Z,101260.86
2023-04-27T07:18:00.281Z,101242.04
2023-04-27T07:20:27.426Z,101222.15
2023-04-27T07:22:54.476Z,101202.14
2023-04-27T07:25:21.801Z,101182.09
2023-04-27T07:27:48.772Z,101161.68
2023-04-27T07:30:17.588Z,101136.16
2023-04-27T07:32:44.768Z,101113.73
2023-04-27T07:35:11.794Z,101093.00
2023-04-27T07:37:38.927Z,101073.73
2023-04-27T07:40:14.742Z,101048.07
2023-04-27T07:42:46.579Z,101033.67
2023-04-27T07:45:14.326Z,101020.08
2023-04-27T07:47:42.643Z,100998.40
2023-04-27T07:50:10.799Z,100980.45
2023-04-27T07:52:37.853Z,100967.82
2023-04-27T07:55:05.321Z,100955.98
2023-04-27T07:57:32.373Z,100935.48
2023-04-27T07:59:59.397Z,100920.04
2023-04-27T08:02:30.663Z,100903.54
2023-04-27T08:04:58.212Z,100881.84
2023-04-27T08:07:26.048Z,100874.39
2023-04-27T08:09:53.587Z,100868.11
2023-04-27T08:12:20.643Z,100859.31
2023-04-27T08:14:47.682Z,100844.13
2023-04-27T08:17:14.782Z,100819.27
2023-04-27T08:19:42.166Z,100792.35
2023-04-27T08:22:09.213Z,100777.92
2023-04-27T08:24:36.693Z,100752.80
2023-04-27T08:27:03.838Z,100737.16
2023-04-27T08:29:31.166Z,100725.66
2023-04-27T08:31:59.980Z,100718.19
2023-04-27T08:34:27.853Z,100712.14
2023-04-27T08:36:55.110Z,100707.10
2023-04-27T08:39:22.132Z,100697.21
2023-04-27T08:41:49.149Z,100681.54
2023-04-27T08:44:16.357Z,100678.39
2023-04-27T08:46:43.472Z,100671.73
2023-04-27T08:49:10.866Z,100664.56
2023-04-27T08:51:38.085Z,100669.05
2023-04-27T08:54:05.102Z,100663.05
2023-04-27T08:56:32.149Z,100654.77
2023-04-27T08:58:59.484Z,100641.67
2023-04-27T09:01:27.775Z,100626.07
2023-04-27T09:03:59.255Z,100616.95
2023-04-27T09:06:34.105Z,100603.41
2023-04-27T09:09:01.455Z,100591.95
2023-04-27T09:11:38.866Z,100579.36
2023-04-27T09:14:36.297Z,100567.05
2023-04-27T09:17:03.737Z,100551.96
2023-04-27T09:19:30.881Z,100545.27
2023-04-27T09:22:11.737Z,100539.61
2023-04-27T09:24:39.105Z,100522.49
2023-04-27T09:27:07.327Z,100508.36
2023-04-27T09:29:38.249Z,100504.06
2023-04-27T09:32:19.414Z,100502.41
2023-04-27T09:34:46.898Z,100504.64
2023-04-27T09:37:14.469Z,100500.92
2023-04-27T09:39:42.154Z,100498.40
2023-04-27T09:42:09.382Z,100500.48
2023-04-27T09:47:41.386Z,100490.94
2023-04-27T09:50:08.760Z,100488.40
2023-04-27T09:52:35.938Z,100477.89
2023-04-27T09:55:03.014Z,100467.59
2023-04-27T09:57:46.062Z,100475.69
2023-04-27T10:00:52.796Z,100455.08
2023-04-27T10:03:30.412Z,100442.48
2023-04-27T10:06:30.854Z,100429.46
2023-04-27T10:08:59.636Z,100421.38
2023-04-27T10:11:44.466Z,100410.45
2023-04-27T10:14:18.352Z,100399.98
2023-04-27T10:16:56.334Z,100397.48
2023-04-27T10:19:24.628Z,100398.69
2023-04-27T10:22:07.985Z,100394.88
2023-04-27T10:24:39.541Z,100378.00
2023-04-27T10:27:08.903Z,100380.44
2023-04-27T10:29:46.259Z,100391.83
2023-04-27T10:32:24.780Z,100396.16
2023-04-27T10:35:09.583Z,100387.38
2023-04-27T10:37:41.598Z,100360.63
2023-04-27T10:40:17.604Z,100324.15
2023-04-27T10:42:45.778Z,100304.94
2023-04-27T10:45:15.726Z,100289.34
2023-04-27T10:47:46.294Z,100278.67
2023-04-27T10:50:13.938Z,100263.45
2023-04-27T10:52:44.410Z,100250.27
2023-04-27T10:55:22.055Z,100240.77
2023-04-27T10:57:53.553Z,100228.67
2023-04-27T11:00:28.203Z,100209.70
2023-04-27T11:02:56.610Z,100201.37
2023-04-27T11:05:25.462Z,100194.25
2023-04-27T11:07:52.836Z,100179.95
2023-04-27T11:10:20.324Z,100167.38
2023-04-27T11:12:47.470Z,100158.52
2023-04-27T11:15:14.700Z,100136.73
2023-04-27T11:17:41.914Z,100116.72
2023-04-27T11:20:09.623Z,100113.25
2023-04-27T11:22:46.619Z,100106.66
2023-04-27T11:25:13.787Z,100090.92
2023-04-27T11:27:41.252Z,100076.73
2023-04-27T11:30:19.416Z,100051.67
2023-04-27T11:32:46.485Z,100029.23
2023-04-27T11:35:14.020Z,100014.87
2023-04-27T11:37:41.836Z,100000.52
2023-04-27T11:40:10.073Z,99993.77
2023-04-27T11:42:37.118Z,99993.72
2023-04-27T11:45:09.430Z,99987.42
2023-04-27T11:47:36.725Z,99983.20
2023-04-27T11:50:06.266Z,99981.25
2023-04-27T11:52:34.429Z,99969.73
2023-04-27T11:55:02.283Z,99963.48
2023-04-27T11:57:31.403Z,99950.62
2023-04-27T12:00:02.920Z,99926.20
2023-04-27T12:02:40.961Z,99904.73
2023-04-27T12:05:10.113Z,99893.79
2023-04-27T12:07:37.653Z,99886.77
2023-04-27T12:10:06.864Z,99886.52
2023-04-27T12:12:33.906Z,99883.71
2023-04-27T12:15:01.299Z,99872.89
2023-04-27T12:17:28.371Z,99868.52
2023-04-27T12:19:55.548Z,99861.84
2023-04-27T12:22:22.663Z,99854.41
2023-04-27T12:24:49.637Z,99846.06
2023-04-27T12:27:17.113Z,99841.75
2023-04-27T12:29:44.185Z,99842.85
2023-04-27T12:32:11.153Z,99840.60
2023-04-27T12:34:39.649Z,99845.68
2023-04-27T12:37:07.257Z,99851.39
2023-04-27T12:39:34.596Z,99842.95
2023-04-27T12:42:02.659Z,99837.90
2023-04-27T12:44:29.723Z,99844.64
2023-04-27T12:46:56.915Z,99844.30
2023-04-27T12:49:23.919Z,99839.19
2023-04-27T12:51:52.162Z,99840.52
2023-04-27T12:54:19.257Z,99832.84
2023-04-27T12:56:47.434Z,99828.41
2023-04-27T12:59:14.540Z,99817.24
2023-04-27T13:01:41.745Z,99814.04
2023-04-27T13:04:09.526Z,99809.34
2023-04-27T13:06:36.902Z,99809.71
2023-04-27T13:09:04.053Z,99801.20
2023-04-27T13:11:31.172Z,99803.45
2023-04-27T13:13:59.198Z,99806.06
2023-04-27T13:16:26.677Z,99805.75
2023-04-27T13:18:55.629Z,99806.55
2023-04-27T13:21:23.544Z,99809.04
2023-04-27T13:23:51.390Z,99806.35
2023-04-27T13:26:18.865Z,99804.56
2023-04-27T13:28:46.380Z,99807.33
2023-04-27T13:31:13.439Z,99804.17
2023-04-27T13:33:42.452Z,99803.89
2023-04-27T13:36:10.365Z,99799.97
2023-04-27T13:38:37.430Z,99800.79
2023-04-27T13:41:04.571Z,99802.02
2023-04-27T13:43:31.673Z,99804.88
2023-04-27T13:46:01.118Z,99804.08
2023-04-27T13:48:28.840Z,99808.80
2023-04-27T13:50:56.516Z,99805.15
2023-04-27T13:53:26.786Z,99807.65
2023-04-27T13:55:54.910Z,99812.88
2023-04-27T13:58:23.728Z,99823.32
2023-04-27T14:00:53.270Z,99830.18
2023-04-27T14:03:20.821Z,99829.95
2023-04-27T14:05:51.694Z,99835.12
2023-04-27T14:08:18.938Z,99840.66
2023-04-27T14:10:46.132Z,99842.61
2023-04-27T14:13:13.242Z,99843.79
2023-04-27T14:15:41.303Z,99843.45
2023-04-27T14:18:08.763Z,99848.16
2023-04-27T14:20:36.393Z,99851.64
2023-04-27T14:23:04.322Z,99855.24
2023-04-27T14:25:34.693Z,99857.53
2023-04-27T14:28:03.160Z,99861.61
2023-04-27T14:30:34.655Z,99869.33
2023-04-27T14:33:01.883Z,99875.39
2023-04-27T14:35:29.591Z,99883.84
2023-04-27T14:38:02.387Z,99892.70
2023-04-27T14:40:30.714Z,99901.58
2023-04-27T14:42:58.761Z,99907.91
2023-04-27T14:45:30.974Z,99919.45
2023-04-27T14:48:04.210Z,99922.27
2023-04-27T14:50:31.308Z,99930.74
2023-04-27T14:52:59.128Z,99940.91
2023-04-27T14:55:26.145Z,99957.90
2023-04-27T14:57:53.223Z,99968.48
2023-04-27T15:00:20.442Z,99988.14
2023-04-27T15:02:47.603Z,99998.04
2023-04-27T15:05:14.665Z,100012.23
2023-04-27T15:07:41.713Z,100025.23
2023-04-27T15:10:09.500Z,100038.64
2023-04-27T15:12:36.660Z,100050.02
2023-04-27T15:15:03.975Z,100060.38
2023-04-27T15:17:31.271Z,100068.87
2023-04-27T15:19:58.348Z,100077.20
2023-04-27T15:22:25.390Z,100084.71
2023-04-27T15:24:52.436Z,100099.35
2023-04-27T15:27:19.492Z,100109.12
2023-04-27T15:29:46.460Z,100109.98
2023-04-27T15:32:13.631Z,100116.11
2023-04-27T15:34:44.696Z,100120.13
2023-04-27T15:37:11.982Z,100124.96
2023-04-27T15:39:39.054Z,100134.04
2023-04-27T15:42:06.120Z,100142.30
2023-04-27T15:44:33.154Z,100143.45
2023-04-27T15:47:00.274Z,100149.80
2023-04-27T15:49:27.826Z,100162.38
2023-04-27T15:51:55.659Z,100172.21
2023-04-27T15:54:22.669Z,100185.39
2023-04-27T15:56:49.695Z,100195.03
2023-04-27T15:59:16.960Z,100213.33
2023-04-27T16:01:44.333Z,100228.23
2023-04-27T16:04:11.825Z,100233.54
2023-04-27T16:06:39.577Z,100238.00
2023-04-27T16:09:10.427Z,100243.15
2023-04-27T16:11:37.847Z,100251.89
2023-04-27T16:14:04.874Z,100259.53
2023-04-27T16:16:32.582Z,100276.19
2023-04-27T16:18:59.702Z,100292.08
2023-04-27T16:21:28.281Z,100313.17
2023-04-27T16:23:55.277Z,100340.73
2023-04-27T16:26:22.334Z,100354.73
2023-04-27T16:28:49.388Z,100357.88
2023-04-27T16:31:16.394Z,100364.97
2023-04-27T16:33:43.445Z,100369.55
2023-04-27T16:36:11.099Z,100367.68
2023-04-27T16:38:39.372Z,100369.42
2023-04-27T16:41:06.651Z,100378.70
2023-04-27T16:43:34.108Z,100388.13
2023-04-27T16:46:01.430Z,100398.02
2023-04-27T16:48:28.614Z,100409.34
2023-04-27T16:50:55.891Z,100418.60
2023-04-27T16:53:23.022Z,100436.22
2023-04-27T16:55:50.078Z,100447.55
2023-04-27T16:58:17.097Z,100461.71
2023-04-27T17:00:46.968Z,100474.11
2023-04-27T17:03:14.163Z,100484.88
2023-04-27T17:05:41.322Z,100493.30
2023-04-27T17:08:08.884Z,100500.05
2023-04-27T17:10:37.023Z,100508.48
2023-04-27T17:13:05.113Z,100517.42
2023-04-27T17:15:32.610Z,100527.96
2023-04-27T17:18:02.455Z,100542.34
2023-04-27T17:20:29.685Z,100552.92
2023-04-27T17:22:56.914Z,100558.10
2023-04-27T17:25:24.166Z,100566.02
2023-04-27T17:27:51.602Z,100573.70
2023-04-27T17:30:18.776Z,100579.46
2023-04-27T17:32:46.135Z,100588.96
2023-04-27T17:35:13.242Z,100597.77
2023-04-27T17:37:40.312Z,100607.54
2023-04-27T17:40:09.245Z,100610.10
2023-04-27T17:42:36.463Z,100615.43
2023-04-27T17:45:03.653Z,100618.94
2023-04-27T17:47:31.122Z,100623.88
2023-04-27T17:49:58.125Z,100628.63
2023-04-27T17:52:25.208Z,100632.61
2023-04-27T17:54:52.391Z,100635.23
2023-04-27T17:57:19.671Z,100641.55
2023-04-27T17:59:46.799Z,100644.04
2023-04-27T18:02:13.930Z,100649.17
2023-04-27T18:04:41.662Z,100653.39
2023-04-27T18:07:08.901Z,100658.69
2023-04-27T18:09:36.524Z,100665.84
2023-04-27T18:12:04.469Z,100670.52
2023-04-27T18:14:31.613Z,100683.48
2023-04-27T18:17:00.602Z,100694.84
2023-04-27T18:19:27.694Z,100704.45
2023-04-27T18:21:55.383Z,100716.33
2023-04-27T18:24:22.575Z,100721.52
2023-04-27T18:26:50.710Z,100723.36
2023-04-27T18:29:17.697Z,100725.95
2023-04-27T18:31:44.886Z,100728.89
2023-04-27T18:34:14.720Z,100730.70
2023-04-27T18:36:41.849Z,100735.05
2023-04-27T18:39:10.278Z,100737.84
2023-04-27T18:41:37.337Z,100749.98
2023-04-27T18:44:05.908Z,100754.25
2023-04-27T18:46:33.313Z,100761.92
2023-04-27T18:49:01.326Z,100771.52
2023-04-27T18:51:29.349Z,100777.80
2023-04-27T18:53:56.505Z,100780.88
2023-04-27T18:56:23.632Z,100788.27
2023-04-27T18:58:51.361Z,100793.25
2023-04-27T19:01:20.486Z,100805.80
2023-04-27T19:03:47.788Z,100809.39
2023-04-27T19:06:15.831Z,100816.81
2023-04-27T19:08:43.526Z,100823.27
2023-04-27T19:11:11.269Z,100830.38
2023-04-27T19:13:41.055Z,100839.30
2023-04-27T19:16:08.901Z,100848.35
2023-04-27T19:18:36.340Z,100858.70
2023-04-27T19:21:03.926Z,100870.55
2023-04-27T19:23:31.224Z,100883.26
2023-04-27T19:26:09.727Z,100896.70
2023-04-27T19:28:39.979Z,100905.37
2023-04-27T19:31:07.248Z,100912.77
2023-04-27T19:33:34.423Z,100912.58
2023-04-27T19:36:01.391Z,100914.65
2023-04-27T19:38:28.688Z,100915.10
2023-04-27T19:40:55.734Z,100915.89
2023-04-27T19:43:22.775Z,100915.80
2023-04-27T19:45:49.807Z,100920.44
2023-04-27T19:48:17.144Z,100931.23
2023-04-27T19:50:44.328Z,100936.12
2023-04-27T19:53:11.817Z,100941.57
2023-04-27T19:55:40.470Z,100946.08
2023-04-27T19:58:07.563Z,100951.33
2023-04-27T20:00:34.872Z,100956.45
2023-04-27T20:03:02.526Z,100962.36
2023-04-27T20:05:29.885Z,100973.81
2023-04-27T20:07:57.244Z,100975.77
2023-04-27T20:10:24.293Z,100980.13
2023-04-27T20:12:56.651Z,100984.46
2023-04-27T20:15:24.662Z,100990.88
2023-04-27T20:17:53.081Z,100993.40
2023-04-27T20:20:20.978Z,100996.34
2023-04-27T20:22:47.975Z,101002.92
2023-04-27T20:25:15.027Z,101011.29
2023-04-27T20:27:42.161Z,101014.02
2023-04-27T20:30:09.619Z,101021.59
2023-04-27T20:32:37.226Z,101028.29
2023-04-27T20:35:04.955Z,101037.98
2023-04-27T20:37:32.779Z,101048.52
2023-04-27T20:40:01.077Z,101059.65
2023-04-27T20:42:29.744Z,101069.25
2023-04-27T20:44:56.808Z,101085.73
2023-04-27T20:47:23.869Z,101095.73
2023-04-27T20:49:51.584Z,101108.30
2023-04-27T20:52:18.722Z,101113.95
2023-04-27T20:54:45.815Z,101125.99
2023-04-27T20:57:14.447Z,101139.02
2023-04-27T20:59:41.730Z,101152.60
2023-04-27T21:02:08.807Z,101171.75
2023-04-27T21:04:36.274Z,101202.25
2023-04-27T21:07:03.677Z,101224.95
2023-04-27T21:09:31.644Z,101253.89
2023-04-27T21:11:58.623Z,101270.52
2023-04-27T21:14:25.582Z,101291.85
2023-04-27T21:16:52.639Z,101334.48
2023-04-27T21:19:19.712Z,101353.05
2023-04-27T21:21:46.772Z,101364.94
2023-04-27T21:24:13.913Z,101383.30
2023-04-27T21:26:42.519Z,101397.65
2023-04-27T21:29:09.589Z,101411.60
2023-04-27T21:31:36.805Z,101422.45
2023-04-27T21:34:04.059Z,101436.27
2023-04-27T21:36:33.125Z,101442.19
2023-04-27T21:39:00.214Z,101450.19
2023-04-27T21:41:27.536Z,101451.34
2023-04-27T21:43:54.688Z,101456.59
2023-04-27T21:46:23.874Z,101465.58
2023-04-27T21:48:51.044Z,101466.87
2023-04-27T21:51:18.077Z,101471.20
2023-04-27T21:53:45.151Z,101475.59
2023-04-27T21:56:12.249Z,101481.95
2023-04-27T21:58:39.216Z,101484.81
2023-04-27T22:01:06.190Z,101489.20
2023-04-27T22:05:22.077Z,101503.05
2023-04-27T22:07:49.277Z,101497.39
2023-04-27T22:10:16.418Z,101494.01
2023-04-27T22:12:43.455Z,101487.81
2023-04-27T22:15:10.805Z,101484.61
2023-04-27T22:17:39.910Z,101482.80
2023-04-27T22:20:11.465Z,101475.67
2023-04-27T22:22:38.633Z,101468.34
2023-04-27T22:25:07.196Z,101458.30
2023-04-27T22:27:42.113Z,101457.80
2023-04-27T22:30:12.741Z,101452.77
2023-04-27T22:32:39.792Z,101460.27
2023-04-27T22:35:18.682Z,101455.91
2023-04-27T22:37:49.833Z,101453.33
2023-04-27T22:40:16.901Z,101420.52
2023-04-27T22:42:43.876Z,101398.86
2023-04-27T22:45:12.057Z,101380.31
2023-04-27T22:47:41.630Z,101360.06
2023-04-27T22:50:09.106Z,101352.01
2023-04-27T22:52:37.377Z,101338.10
2023-04-27T22:55:05.053Z,101298.73
2023-04-27T22:57:32.074Z,101269.83
2023-04-27T22:59:59.227Z,101264.32
2023-04-27T23:02:26.465Z,101259.47
2023-04-27T23:04:53.579Z,101251.39
2023-04-27T23:07:20.693Z,101246.48
2023-04-27T23:09:48.462Z,101247.35
2023-04-27T23:12:15.902Z,101250.25
2023-04-27T23:14:43.058Z,101246.73
2023-04-27T23:17:10.525Z,101237.89
2023-04-27T23:19:38.041Z,101231.84
2023-04-27T23:22:05.113Z,101225.92
2023-04-27T23:24:32.196Z,101221.09
2023-04-27T23:26:59.160Z,101217.86
2023-04-27T23:29:26.146Z,101219.39
2023-04-27T23:31:53.283Z,101220.30
2023-04-27T23:34:20.270Z,101217.88
2023-04-27T23:36:47.372Z,101222.16
2023-04-27T23:39:14.419Z,101226.85
2023-04-27T23:41:41.493Z,101228.88
2023-04-27T23:44:08.653Z,101237.23
2023-04-27T23:46:35.788Z,101245.38
2023-04-27T23:49:03.241Z,101247.15
2023-04-27T23:51:31.177Z,101251.97
2023-04-27T23:53:58.175Z,101250.80
2023-04-27T23:56:25.261Z,101256.70
2023-04-27T23:58:52.318Z,101256.77
